createdAt,value
2023-03-29T00:01:10.268Z,100887.69
2023-03-29T00:04:14.001Z,100878.22
2023-03-29T00:07:15.710Z,100875.66
2023-03-29T00:10:17.569Z,100871.28
2023-03-29T00:13:19.225Z,100868.50
2023-03-29T00:16:21.039Z,100863.16
2023-03-29T00:19:22.905Z,100864.81
2023-03-29T00:22:24.740Z,100859.75
2023-03-29T00:25:27.595Z,100866.56
2023-03-29T00:28:29.345Z,100855.75
2023-03-29T00:31:31.723Z,100859.25
2023-03-29T00:34:36.076Z,100855.91
2023-03-29T00:37:38.040Z,100855.09
2023-03-29T00:40:44.820Z,100848.84
2023-03-29T00:44:04.422Z,100841.69
2023-03-29T00:47:06.001Z,100843.50
2023-03-29T00:50:16.401Z,100845.03
2023-03-29T00:53:18.835Z,100847.69
2023-03-29T00:56:27.502Z,100839.19
2023-03-29T00:59:33.069Z,100830.84
2023-03-29T01:02:39.823Z,100839.41
2023-03-29T01:05:46.568Z,100832.03
2023-03-29T01:09:01.248Z,100826.13
2023-03-29T01:12:13.324Z,100815.19
2023-03-29T01:15:20.031Z,100815.44
2023-03-29T01:18:23.023Z,100808.47
2023-03-29T01:21:37.831Z,100807.75
2023-03-29T01:25:15.351Z,100805.41
2023-03-29T01:28:22.555Z,100794.53
2023-03-29T01:31:36.860Z,100796.97
2023-03-29T01:34:42.055Z,100800.56
2023-03-29T01:37:57.217Z,100791.28
2023-03-29T01:40:58.978Z,100794.75
2023-03-29T01:44:10.131Z,100793.09
2023-03-29T01:47:42.645Z,100799.28
2023-03-29T01:50:49.740Z,100801.13
2023-03-29T01:53:59.291Z,100802.66
2023-03-29T01:57:04.620Z,100789.91
2023-03-29T02:00:10.897Z,100786.53
2023-03-29T02:03:17.533Z,100778.09
2023-03-29T02:06:23.821Z,100783.13
2023-03-29T02:09:27.071Z,100774.53
2023-03-29T02:12:29.830Z,100766.03
2023-03-29T02:15:31.575Z,100756.63
2023-03-29T02:18:35.577Z,100758.28
2023-03-29T02:21:48.307Z,100761.69
2023-03-29T02:24:52.296Z,100752.19
2023-03-29T02:27:56.065Z,100758.34
2023-03-29T02:31:20.277Z,100753.25
2023-03-29T02:34:49.407Z,100747.50
2023-03-29T02:37:54.593Z,100745.09
2023-03-29T02:40:58.981Z,100746.84
2023-03-29T02:44:02.413Z,100741.63
2023-03-29T02:47:22.366Z,100739.88
2023-03-29T02:50:32.047Z,100735.69
2023-03-29T02:53:42.284Z,100731.38
2023-03-29T02:57:05.162Z,100731.25
2023-03-29T03:00:10.303Z,100724.91
2023-03-29T03:03:13.038Z,100721.13
2023-03-29T03:06:15.289Z,100726.41
2023-03-29T03:09:17.127Z,100715.25
2023-03-29T03:12:21.513Z,100712.69
2023-03-29T03:15:23.161Z,100707.56
2023-03-29T03:18:24.934Z,100705.94
2023-03-29T03:21:28.304Z,100700.03
2023-03-29T03:24:29.925Z,100693.13
2023-03-29T03:27:33.939Z,100684.63
2023-03-29T03:30:35.876Z,100693.88
2023-03-29T03:33:53.005Z,100683.50
2023-03-29T03:37:21.020Z,100671.50
2023-03-29T03:40:22.721Z,100673.94
2023-03-29T03:43:24.417Z,100669.81
2023-03-29T03:46:28.354Z,100665.56
2023-03-29T03:49:32.458Z,100661.34
2023-03-29T03:52:34.339Z,100666.69
2023-03-29T03:55:36.390Z,100655.47
2023-03-29T03:58:44.412Z,100656.63
2023-03-29T04:01:46.306Z,100661.88
2023-03-29T04:04:51.970Z,100664.56
2023-03-29T04:07:56.309Z,100662.84
2023-03-29T04:11:33.820Z,100662.25
2023-03-29T04:14:35.678Z,100654.44
2023-03-29T04:17:43.983Z,100646.97
2023-03-29T04:21:04.712Z,100659.91
2023-03-29T04:24:08.912Z,100654.06
2023-03-29T04:27:13.411Z,100647.41
2023-03-29T04:30:15.225Z,100642.34
2023-03-29T04:33:46.893Z,100653.34
2023-03-29T04:36:52.538Z,100648.38
2023-03-29T04:40:00.630Z,100649.16
2023-03-29T04:43:08.306Z,100655.75
2023-03-29T04:46:15.894Z,100652.31
2023-03-29T04:49:35.731Z,100654.78
2023-03-29T04:52:42.174Z,100646.81
2023-03-29T04:55:46.506Z,100647.56
2023-03-29T04:58:53.501Z,100645.06
2023-03-29T05:01:56.504Z,100634.00
2023-03-29T05:04:58.297Z,100637.25
2023-03-29T05:08:00.388Z,100635.59
2023-03-29T05:11:10.895Z,100628.72
2023-03-29T05:14:12.657Z,100624.38
2023-03-29T05:17:14.675Z,100624.06
2023-03-29T05:20:17.574Z,100609.53
2023-03-29T05:23:22.990Z,100610.19
2023-03-29T05:26:51.999Z,100613.59
2023-03-29T05:29:54.513Z,100609.22
2023-03-29T05:33:02.674Z,100598.97
2023-03-29T05:36:08.547Z,100598.81
2023-03-29T05:39:14.447Z,100592.47
2023-03-29T05:42:19.407Z,100595.94
2023-03-29T05:45:29.909Z,100599.97
2023-03-29T05:48:36.070Z,100597.34
2023-03-29T05:51:38.000Z,100590.09
2023-03-29T05:54:40.348Z,100587.13
2023-03-29T05:57:42.327Z,100594.59
2023-03-29T06:00:44.419Z,100594.44
2023-03-29T06:04:06.560Z,100592.53
2023-03-29T06:07:16.453Z,100582.88
2023-03-29T06:10:25.195Z,100580.88
2023-03-29T06:13:34.893Z,100579.47
2023-03-29T06:16:38.096Z,100591.06
2023-03-29T06:19:40.977Z,100578.50
2023-03-29T06:22:43.559Z,100584.84
2023-03-29T06:25:47.395Z,100586.09
2023-03-29T06:28:51.955Z,100588.31
2023-03-29T06:31:54.821Z,100583.53
2023-03-29T06:35:16.648Z,100584.13
2023-03-29T06:38:26.209Z,100589.63
2023-03-29T06:41:44.242Z,100584.13
2023-03-29T06:45:00.139Z,100586.50
2023-03-29T06:48:03.416Z,100581.25
2023-03-29T06:51:07.721Z,100588.41
2023-03-29T06:54:09.802Z,100578.41
2023-03-29T06:57:16.467Z,100589.75
2023-03-29T07:00:27.883Z,100584.59
2023-03-29T07:03:52.818Z,100592.50
2023-03-29T07:07:02.161Z,100590.00
2023-03-29T07:10:07.403Z,100589.47
2023-03-29T07:13:28.293Z,100586.38
2023-03-29T07:16:32.822Z,100587.03
2023-03-29T07:19:44.249Z,100587.59
2023-03-29T07:23:05.771Z,100586.78
2023-03-29T07:26:08.205Z,100588.88
2023-03-29T07:29:10.669Z,100584.53
2023-03-29T07:32:12.720Z,100585.69
2023-03-29T07:35:21.147Z,100593.13
2023-03-29T07:38:23.067Z,100596.63
2023-03-29T07:41:32.313Z,100593.47
2023-03-29T07:44:41.692Z,100597.41
2023-03-29T07:47:44.906Z,100602.28
2023-03-29T07:50:46.884Z,100605.28
2023-03-29T07:53:49.920Z,100607.84
2023-03-29T07:57:17.964Z,100614.53
2023-03-29T08:00:28.322Z,100617.66
2023-03-29T08:03:50.270Z,100619.66
2023-03-29T08:06:52.976Z,100615.28
2023-03-29T08:09:56.389Z,100607.19
2023-03-29T08:13:11.803Z,100607.41
2023-03-29T08:16:29.451Z,100604.72
2023-03-29T08:19:39.637Z,100603.19
2023-03-29T08:22:43.169Z,100599.59
2023-03-29T08:26:03.784Z,100593.88
2023-03-29T08:29:06.652Z,100605.13
2023-03-29T08:32:08.475Z,100599.25
2023-03-29T08:35:10.533Z,100599.16
2023-03-29T08:38:24.844Z,100592.88
2023-03-29T08:41:45.056Z,100592.97
2023-03-29T08:44:47.167Z,100592.75
2023-03-29T08:48:11.800Z,100593.78
2023-03-29T08:51:41.677Z,100593.38
2023-03-29T08:54:47.173Z,100596.03
2023-03-29T08:58:08.151Z,100588.13
2023-03-29T09:01:11.832Z,100581.38
2023-03-29T09:04:42.582Z,100582.88
2023-03-29T09:08:03.038Z,100585.09
2023-03-29T09:11:23.944Z,100578.56
2023-03-29T09:14:52.483Z,100592.19
2023-03-29T09:18:07.291Z,100589.34
2023-03-29T09:21:18.188Z,100590.75
2023-03-29T09:24:41.017Z,100591.38
2023-03-29T09:28:04.487Z,100585.06
2023-03-29T09:31:35.515Z,100586.44
2023-03-29T09:34:49.414Z,100583.81
2023-03-29T09:37:55.659Z,100595.44
2023-03-29T09:41:05.500Z,100587.25
2023-03-29T09:44:27.747Z,100594.25
2023-03-29T09:47:40.972Z,100590.13
2023-03-29T09:50:51.221Z,100585.16
2023-03-29T09:53:56.692Z,100583.84
2023-03-29T09:57:33.749Z,100580.66
2023-03-29T10:00:36.903Z,100580.78
2023-03-29T10:03:40.125Z,100579.03
2023-03-29T10:06:52.860Z,100568.44
2023-03-29T10:09:56.597Z,100571.19
2023-03-29T10:13:10.142Z,100560.97
2023-03-29T10:16:28.978Z,100553.25
2023-03-29T10:19:35.671Z,100561.03
2023-03-29T10:22:38.081Z,100570.59
2023-03-29T10:25:42.595Z,100569.88
2023-03-29T10:28:45.152Z,100570.72
2023-03-29T10:31:48.205Z,100562.41
2023-03-29T10:34:51.947Z,100571.56
2023-03-29T10:37:56.503Z,100564.28
2023-03-29T10:41:12.555Z,100566.53
2023-03-29T10:44:38.375Z,100543.84
2023-03-29T10:47:45.431Z,100552.00
2023-03-29T10:50:52.965Z,100548.59
2023-03-29T10:53:56.087Z,100537.78
2023-03-29T10:57:10.490Z,100540.13
2023-03-29T11:00:27.461Z,100533.72
2023-03-29T11:04:23.833Z,100533.69
2023-03-29T11:07:45.200Z,100531.00
2023-03-29T11:10:54.070Z,100528.66
2023-03-29T11:14:33.157Z,100521.63
2023-03-29T11:17:54.837Z,100527.19
2023-03-29T11:21:14.233Z,100521.53
2023-03-29T11:24:33.916Z,100515.81
2023-03-29T11:28:04.944Z,100531.00
2023-03-29T11:31:15.380Z,100527.19
2023-03-29T11:34:53.373Z,100522.66
2023-03-29T11:38:39.957Z,100520.06
2023-03-29T11:41:44.860Z,100514.41
2023-03-29T11:44:54.626Z,100518.13
2023-03-29T11:48:00.333Z,100514.59
2023-03-29T11:51:18.785Z,100496.00
2023-03-29T11:54:45.510Z,100502.94
2023-03-29T11:58:02.868Z,100515.91
2023-03-29T12:01:10.721Z,100508.50
2023-03-29T12:04:22.905Z,100504.94
2023-03-29T12:07:36.012Z,100507.81
2023-03-29T12:10:47.968Z,100500.97
2023-03-29T12:14:02.741Z,100498.91
2023-03-29T12:17:12.786Z,100494.94
2023-03-29T12:20:38.935Z,100495.16
2023-03-29T12:23:44.957Z,100486.91
2023-03-29T12:26:56.949Z,100490.31
2023-03-29T12:30:33.203Z,100482.03
2023-03-29T12:33:43.840Z,100483.53
2023-03-29T12:37:52.824Z,100490.53
2023-03-29T12:41:28.812Z,100498.19
2023-03-29T12:44:34.320Z,100507.41
2023-03-29T12:47:53.305Z,100512.66
2023-03-29T12:51:06.382Z,100503.06
2023-03-29T12:54:17.199Z,100507.47
2023-03-29T12:57:26.233Z,100511.88
2023-03-29T13:00:42.741Z,100506.91
2023-03-29T13:03:56.435Z,100502.19
2023-03-29T13:07:08.920Z,100500.44
2023-03-29T13:10:31.617Z,100499.44
2023-03-29T13:13:37.030Z,100496.50
2023-03-29T13:16:40.578Z,100489.03
2023-03-29T13:19:59.858Z,100480.13
2023-03-29T13:23:36.376Z,100481.47
2023-03-29T13:26:53.484Z,100482.91
2023-03-29T13:30:32.931Z,100473.00
2023-03-29T13:34:00.019Z,100475.09
2023-03-29T13:37:28.198Z,100461.94
2023-03-29T13:40:29.979Z,100458.91
2023-03-29T13:43:37.817Z,100451.81
2023-03-29T13:46:42.605Z,100453.75
2023-03-29T13:49:51.753Z,100459.63
2023-03-29T13:53:04.023Z,100456.97
2023-03-29T13:56:11.165Z,100449.28
2023-03-29T13:59:25.413Z,100444.84
2023-03-29T14:02:47.368Z,100453.03
2023-03-29T14:05:58.063Z,100443.69
2023-03-29T14:09:05.321Z,100445.06
2023-03-29T14:12:10.955Z,100441.03
2023-03-29T14:15:38.402Z,100444.25
2023-03-29T14:18:42.130Z,100448.84
2023-03-29T14:21:46.579Z,100438.97
2023-03-29T14:24:54.043Z,100442.97
2023-03-29T14:27:55.850Z,100434.38
2023-03-29T14:31:01.797Z,100430.13
2023-03-29T14:34:08.846Z,100431.38
2023-03-29T14:37:14.822Z,100436.38
2023-03-29T14:40:20.138Z,100436.41
2023-03-29T14:43:24.124Z,100434.34
2023-03-29T14:46:30.038Z,100427.19
2023-03-29T14:49:34.727Z,100431.75
2023-03-29T14:52:37.261Z,100423.16
2023-03-29T14:55:40.525Z,100428.84
2023-03-29T14:58:48.833Z,100423.91
2023-03-29T15:01:54.161Z,100424.66
2023-03-29T15:05:23.698Z,100415.00
2023-03-29T15:08:38.263Z,100408.50
2023-03-29T15:11:40.469Z,100408.56
2023-03-29T15:14:43.829Z,100395.66
2023-03-29T15:17:51.017Z,100398.59
2023-03-29T15:20:59.914Z,100396.09
2023-03-29T15:24:04.564Z,100396.41
2023-03-29T15:27:23.725Z,100391.16
2023-03-29T15:30:40.157Z,100387.09
2023-03-29T15:33:44.157Z,100378.06
2023-03-29T15:36:47.100Z,100379.44
2023-03-29T15:39:49.144Z,100377.41
2023-03-29T15:42:53.224Z,100367.47
2023-03-29T15:45:57.900Z,100369.50
2023-03-29T15:49:04.000Z,100358.31
2023-03-29T15:52:06.761Z,100359.41
2023-03-29T15:55:09.596Z,100354.44
2023-03-29T15:58:22.930Z,100348.19
2023-03-29T16:01:39.015Z,100348.81
2023-03-29T16:04:40.841Z,100348.25
2023-03-29T16:07:43.016Z,100345.34
2023-03-29T16:10:47.240Z,100342.50
2023-03-29T16:13:49.084Z,100342.88
2023-03-29T16:17:03.566Z,100334.47
2023-03-29T16:20:05.999Z,100329.81
2023-03-29T16:23:14.504Z,100333.97
2023-03-29T16:26:17.252Z,100327.94
2023-03-29T16:29:19.387Z,100328.22
2023-03-29T16:32:21.252Z,100325.28
2023-03-29T16:35:32.123Z,100321.31
2023-03-29T16:38:34.468Z,100318.75
2023-03-29T16:41:37.445Z,100326.31
2023-03-29T16:44:39.698Z,100318.09
2023-03-29T16:47:48.628Z,100317.50
2023-03-29T16:50:50.824Z,100326.31
2023-03-29T16:53:57.846Z,100331.84
2023-03-29T16:56:59.661Z,100313.31
2023-03-29T17:00:02.484Z,100314.50
2023-03-29T17:03:05.509Z,100322.47
2023-03-29T17:06:12.751Z,100318.84
2023-03-29T17:09:15.310Z,100321.56
2023-03-29T17:12:17.589Z,100314.72
2023-03-29T17:15:19.770Z,100305.69
2023-03-29T17:18:23.795Z,100308.44
2023-03-29T17:21:26.528Z,100292.31
2023-03-29T17:24:33.873Z,100289.28
2023-03-29T17:27:38.140Z,100275.91
2023-03-29T17:30:41.181Z,100275.31
2023-03-29T17:33:43.289Z,100278.38
2023-03-29T17:36:49.117Z,100265.13
2023-03-29T17:39:51.111Z,100267.03
2023-03-29T17:42:53.428Z,100276.84
2023-03-29T17:45:55.971Z,100270.16
2023-03-29T17:49:00.289Z,100267.97
2023-03-29T17:52:03.016Z,100272.66
2023-03-29T17:55:11.324Z,100275.59
2023-03-29T17:58:13.232Z,100275.81
2023-03-29T18:01:24.759Z,100272.66
2023-03-29T18:04:26.826Z,100273.47
2023-03-29T18:07:29.927Z,100267.75
2023-03-29T18:10:32.677Z,100277.47
2023-03-29T18:13:36.083Z,100270.06
2023-03-29T18:16:38.706Z,100270.44
2023-03-29T18:19:44.006Z,100278.28
2023-03-29T18:22:46.124Z,100285.44
2023-03-29T18:25:48.394Z,100270.88
2023-03-29T18:28:52.391Z,100266.78
2023-03-29T18:31:54.937Z,100255.16
2023-03-29T18:34:59.565Z,100273.34
2023-03-29T18:38:06.704Z,100272.75
2023-03-29T18:41:14.238Z,100272.16
2023-03-29T18:44:16.643Z,100271.44
2023-03-29T18:47:18.750Z,100273.44
2023-03-29T18:50:23.470Z,100278.50
2023-03-29T18:53:28.545Z,100280.13
2023-03-29T18:56:32.311Z,100282.59
2023-03-29T18:59:39.396Z,100277.31
2023-03-29T19:02:43.741Z,100279.91
2023-03-29T19:05:53.030Z,100277.69
2023-03-29T19:09:06.632Z,100275.44
2023-03-29T19:12:58.715Z,100268.75
2023-03-29T19:15:39.982Z,100269.91
2023-03-29T19:18:45.053Z,100269.22
2023-03-29T19:29:53.150Z,100259.09
2023-03-29T19:33:10.284Z,100255.72
2023-03-29T19:36:16.352Z,100247.25
2023-03-29T19:39:18.367Z,100239.53
2023-03-29T19:42:31.940Z,100243.75
2023-03-29T19:45:42.968Z,100236.94
2023-03-29T19:49:05.161Z,100237.78
2023-03-29T19:52:08.105Z,100222.41
2023-03-29T19:55:10.929Z,100218.88
2023-03-29T19:58:15.530Z,100216.56
2023-03-29T20:01:32.161Z,100219.38
2023-03-29T20:04:36.815Z,100217.03
2023-03-29T20:07:41.445Z,100217.94
2023-03-29T20:10:44.142Z,100206.19
2023-03-29T20:13:45.953Z,100201.97
2023-03-29T20:16:49.899Z,100191.88
2023-03-29T20:19:55.664Z,100179.09
2023-03-29T20:23:04.662Z,100162.81
2023-03-29T20:26:10.534Z,100147.94
2023-03-29T20:29:14.672Z,100140.31
2023-03-29T20:32:16.405Z,100147.22
2023-03-29T20:35:18.028Z,100149.00
2023-03-29T20:38:19.809Z,100152.25
2023-03-29T20:41:23.056Z,100165.16
2023-03-29T20:44:26.419Z,100154.16
2023-03-29T20:47:29.602Z,100157.53
2023-03-29T20:50:33.698Z,100163.50
2023-03-29T20:53:35.952Z,100157.53
2023-03-29T20:56:40.244Z,100152.25
2023-03-29T20:59:43.704Z,100151.19
2023-03-29T21:02:46.984Z,100137.16
2023-03-29T21:05:55.220Z,100138.94
2023-03-29T21:08:57.521Z,100138.69
2023-03-29T21:11:59.191Z,100137.53
2023-03-29T21:15:02.426Z,100127.94
2023-03-29T21:18:07.850Z,100119.47
2023-03-29T21:21:10.942Z,100118.78
2023-03-29T21:24:15.607Z,100115.38
2023-03-29T21:27:18.362Z,100102.47
2023-03-29T21:30:20.256Z,100103.88
2023-03-29T21:33:22.298Z,100096.97
2023-03-29T21:36:24.580Z,100103.06
2023-03-29T21:39:29.195Z,100098.84
2023-03-29T21:42:30.780Z,100097.09
2023-03-29T21:45:32.459Z,100081.50
2023-03-29T21:48:34.120Z,100083.84
2023-03-29T21:51:36.074Z,100078.69
2023-03-29T21:54:37.932Z,100081.00
2023-03-29T21:57:39.901Z,100071.50
2023-03-29T22:00:41.647Z,100058.59
2023-03-29T22:03:44.393Z,100064.56
2023-03-29T22:06:46.597Z,100062.00
2023-03-29T22:09:48.465Z,100061.06
2023-03-29T22:12:51.761Z,100059.19
2023-03-29T22:16:01.220Z,100051.56
2023-03-29T22:19:04.200Z,100045.47
2023-03-29T22:22:06.584Z,100033.88
2023-03-29T22:25:12.031Z,100030.03
2023-03-29T22:28:13.999Z,100024.66
2023-03-29T22:31:17.635Z,100020.97
2023-03-29T22:34:19.558Z,100020.28
2023-03-29T22:37:22.621Z,100012.78
2023-03-29T22:40:27.637Z,100004.47
2023-03-29T22:43:29.264Z,100001.53
2023-03-29T22:46:31.876Z,99987.91
2023-03-29T22:49:33.687Z,99998.47
2023-03-29T22:52:36.470Z,99995.09
2023-03-29T22:55:37.998Z,99983.59
2023-03-29T22:58:39.789Z,99987.25
2023-03-29T23:01:41.606Z,99983.59
2023-03-29T23:04:45.509Z,99982.91
2023-03-29T23:07:47.358Z,99976.13
2023-03-29T23:11:23.732Z,99971.31
2023-03-29T23:15:01.323Z,99972.47
2023-03-29T23:18:04.718Z,99963.47
2023-03-29T23:21:07.832Z,99960.31
2023-03-29T23:24:10.603Z,99961.97
2023-03-29T23:27:15.032Z,99953.28
2023-03-29T23:30:18.542Z,99949.53
2023-03-29T23:33:21.907Z,99941.78
2023-03-29T23:36:25.683Z,99927.84
2023-03-29T23:39:27.598Z,99920.81
2023-03-29T23:42:29.780Z,99931.94
2023-03-29T23:45:31.854Z,99927.03
2023-03-29T23:48:34.311Z,99914.50
2023-03-29T23:51:36.822Z,99921.28
2023-03-29T23:54:39.539Z,99910.06
2023-03-29T23:57:41.966Z,99908.53
